To NAV CANADA Home Page Login to a new session Search on AWWS site Feedback and Comments Disclaimer Vers la page française équivalente Tips FAQ What's new on the site To the Forecasts and Observations / NOTAM section To "File a Flight Plan" website Publications and other links Update of the User's profile FIC Telephone Numbers My Weather Data Folder Route Weather Data Regional Weather Data Local Weather Data To the Forecasts and Observations / NOTAM section
Request Generated 05/04/2016 at 11:46:24 UTC . Weather information available at that time is displayed.

METAR/TAF

LYNN LAKE/MB    (show WxCam)

METAR CYYL 041100Z AUTO 00000KT 9SM BKN120 OVC140 05/M04 A2985 RMK
SLP123=
METAR CYYL 041000Z AUTO 18006KT 160V230 9SM SCT130 BKN160 05/M04
A2989 RMK SLP135=
METAR CYYL 040900Z AUTO 16006KT 9SM SCT140 04/M04 A2990 RMK SLP141=

TAF CYYL 040638Z 0407/0419 16008KT P6SM SCT120
BECMG 0413/0415 22010KT
RMK FCST BASED ON AUTO OBS. NXT FCST BY 041300Z=
Your time UTC time
Weather data provided by Environment Canada and NAV CANADA